createdAt,value
2022-11-16T00:03:49.095Z,97375.97
2022-11-16T00:09:14.468Z,97377.75
2022-11-16T00:14:16.291Z,97365.03
2022-11-16T00:19:18.197Z,97359.38
2022-11-16T00:24:22.512Z,97360.03
2022-11-16T00:29:26.940Z,97356.81
2022-11-16T00:34:29.047Z,97348.28
2022-11-16T00:39:30.926Z,97336.22
2022-11-16T00:44:32.729Z,97336.22
2022-11-16T00:49:34.600Z,97331.88
2022-11-16T00:54:36.573Z,97320.78
2022-11-16T00:59:38.784Z,97323.34
2022-11-16T01:04:40.601Z,97319.16
2022-11-16T01:09:42.415Z,97316.75
2022-11-16T01:14:47.720Z,97306.28
2022-11-16T01:19:49.529Z,97295.69
2022-11-16T01:24:51.368Z,97300.50
2022-11-16T01:29:53.714Z,97286.03
2022-11-16T01:34:55.614Z,97273.97
2022-11-16T01:40:08.180Z,97276.38
2022-11-16T01:45:36.135Z,97262.22
2022-11-16T01:50:42.524Z,97257.25
2022-11-16T01:55:47.720Z,97250.63
2022-11-16T02:01:07.907Z,97241.94
2022-11-16T02:06:29.504Z,97230.69
2022-11-16T02:12:32.166Z,97233.09
2022-11-16T02:18:11.066Z,97232.31
2022-11-16T02:24:03.035Z,97238.41
2022-11-16T02:29:29.942Z,97226.50
2022-11-16T02:34:44.427Z,97222.16
2022-11-16T02:39:50.342Z,97205.09
2022-11-16T02:44:55.022Z,97193.03
2022-11-16T02:50:02.927Z,97179.19
2022-11-16T02:55:04.946Z,97183.53
2022-11-16T03:00:11.162Z,97181.44
2022-11-16T03:05:19.191Z,97172.28
2022-11-16T03:10:48.276Z,97170.50
2022-11-16T03:15:52.318Z,97167.94
2022-11-16T03:21:03.184Z,97174.69
2022-11-16T03:26:08.692Z,97177.91
2022-11-16T03:31:21.074Z,97183.06
2022-11-16T03:36:31.323Z,97186.94
2022-11-16T03:41:37.561Z,97177.63
2022-11-16T03:46:42.527Z,97180.38
2022-11-16T03:51:46.224Z,97165.72
2022-11-16T03:56:48.291Z,97171.84
2022-11-16T04:01:50.530Z,97156.88
2022-11-16T04:07:10.993Z,97161.72
2022-11-16T04:12:32.110Z,97163.47
2022-11-16T04:17:52.459Z,97158.31
2022-11-16T04:23:31.360Z,97154.63
2022-11-16T04:28:35.794Z,97153.66
2022-11-16T04:33:59.276Z,97139.50
2022-11-16T04:39:03.618Z,97135.47
2022-11-16T04:44:05.651Z,97140.78
2022-11-16T04:49:09.782Z,97149.31
2022-11-16T04:54:13.932Z,97143.84
2022-11-16T04:59:16.734Z,97146.72
2022-11-16T05:04:19.174Z,97158.16
2022-11-16T05:09:22.241Z,97152.84
2022-11-16T05:14:24.193Z,97155.25
2022-11-16T05:19:45.048Z,97152.53
2022-11-16T05:24:47.237Z,97156.72
2022-11-16T05:29:52.421Z,97162.81
2022-11-16T05:34:57.069Z,97155.56
2022-11-16T05:40:00.217Z,97149.44
2022-11-16T05:45:17.159Z,97150.91
2022-11-16T05:50:22.883Z,97152.03
2022-11-16T05:55:38.837Z,97165.56
2022-11-16T06:00:41.469Z,97163.78
2022-11-16T06:05:45.584Z,97164.75
2022-11-16T06:10:50.196Z,97165.56
2022-11-16T06:15:52.466Z,97173.78
2022-11-16T06:20:55.041Z,97170.22
2022-11-16T06:25:57.314Z,97170.06
2022-11-16T06:31:02.734Z,97181.81
2022-11-16T06:36:08.809Z,97183.28
2022-11-16T06:41:12.316Z,97171.50
2022-11-16T06:46:19.171Z,97163.78
2022-11-16T06:51:23.007Z,97151.69
2022-11-16T06:56:24.923Z,97169.56
2022-11-16T07:01:30.773Z,97163.47
2022-11-16T07:06:39.364Z,97166.84
2022-11-16T07:11:43.427Z,97159.91
2022-11-16T07:16:45.834Z,97164.09
2022-11-16T07:21:48.194Z,97170.38
2022-11-16T07:26:53.436Z,97167.63
2022-11-16T07:31:58.818Z,97164.72
2022-11-16T07:37:23.520Z,97161.81
2022-11-16T07:42:26.408Z,97160.69
2022-11-16T07:47:54.992Z,97162.78
2022-11-16T07:53:16.698Z,97150.69
2022-11-16T07:58:20.184Z,97152.94
2022-11-16T08:03:24.750Z,97141.50
2022-11-16T08:08:29.604Z,97138.59
2022-11-16T08:13:34.327Z,97139.69
2022-11-16T08:18:38.446Z,97144.53
2022-11-16T08:23:41.646Z,97145.00
2022-11-16T08:28:46.094Z,97136.59
2022-11-16T08:33:48.893Z,97133.69
2022-11-16T08:38:52.380Z,97134.78
2022-11-16T08:43:56.220Z,97139.91
2022-11-16T08:48:58.525Z,97133.28
2022-11-16T08:54:01.704Z,97130.00
2022-11-16T08:59:03.899Z,97137.09
2022-11-16T09:04:06.075Z,97134.78
2022-11-16T09:09:07.942Z,97141.06
2022-11-16T09:14:09.869Z,97142.78
2022-11-16T09:19:11.898Z,97143.88
2022-11-16T09:24:13.765Z,97139.81
2022-11-16T09:29:16.005Z,97139.13
2022-11-16T09:34:18.956Z,97137.81
2022-11-16T09:39:36.321Z,97133.91
2022-11-16T09:44:55.604Z,97129.38
2022-11-16T09:50:03.884Z,97127.25
2022-11-16T09:55:30.984Z,97120.94
2022-11-16T10:00:35.130Z,97119.34
2022-11-16T10:05:43.732Z,97108.22
2022-11-16T10:10:57.616Z,97105.91
2022-11-16T10:16:16.736Z,97103.25
2022-11-16T10:21:21.724Z,97101.31
2022-11-16T10:26:56.950Z,97088.84
2022-11-16T10:32:26.493Z,97084.66
2022-11-16T10:37:32.007Z,97073.97
2022-11-16T10:42:39.384Z,97062.94
2022-11-16T10:47:56.565Z,97064.19
2022-11-16T10:53:00.183Z,97065.91
2022-11-16T10:58:05.510Z,97067.59
2022-11-16T11:03:12.115Z,97065.66
2022-11-16T11:08:26.246Z,97054.34
2022-11-16T11:13:28.131Z,97055.31
2022-11-16T11:18:30.261Z,97047.72
2022-11-16T11:23:42.655Z,97047.84
2022-11-16T11:28:50.113Z,97052.31
2022-11-16T11:34:03.184Z,97052.59
2022-11-16T11:39:28.351Z,97049.19
2022-11-16T11:44:38.753Z,97049.66
2022-11-16T11:49:50.117Z,97040.91
2022-11-16T11:54:54.422Z,97043.50
2022-11-16T11:59:56.385Z,97041.53
2022-11-16T12:05:10.981Z,97038.59
2022-11-16T12:10:36.736Z,97042.59
2022-11-16T12:15:48.978Z,97044.66
2022-11-16T12:21:14.186Z,97043.31
2022-11-16T12:26:22.184Z,97040.38
2022-11-16T12:31:35.919Z,97033.84
2022-11-16T12:36:49.741Z,97039.81
2022-11-16T12:42:08.808Z,97038.03
2022-11-16T12:47:18.013Z,97035.44
2022-11-16T12:52:19.905Z,97039.03
2022-11-16T12:57:30.584Z,97031.63
2022-11-16T13:03:00.258Z,97029.03
2022-11-16T13:08:11.113Z,97036.00
2022-11-16T13:13:36.368Z,97030.03
2022-11-16T13:18:42.643Z,97028.41
2022-11-16T13:24:18.363Z,97026.81
2022-11-16T13:29:32.426Z,97026.19
2022-11-16T13:34:37.762Z,97025.75
2022-11-16T13:40:06.629Z,97022.53
2022-11-16T13:45:22.318Z,97019.50
2022-11-16T13:50:48.685Z,97015.50
2022-11-16T13:56:05.633Z,97026.19
2022-11-16T14:01:16.124Z,97017.81
2022-11-16T14:06:23.865Z,97017.19
2022-11-16T14:11:40.132Z,97015.59
2022-11-16T14:16:43.610Z,97022.09
2022-11-16T14:22:15.293Z,97014.88
2022-11-16T14:27:51.121Z,97005.22
2022-11-16T14:32:56.203Z,97005.41
2022-11-16T14:38:05.171Z,97006.56
2022-11-16T14:43:17.174Z,96996.59
2022-11-16T14:48:21.801Z,96992.75
2022-11-16T14:53:25.152Z,96988.91
2022-11-16T14:58:27.143Z,96997.03
2022-11-16T15:03:34.426Z,96992.22
2022-11-16T15:09:02.446Z,96986.41
2022-11-16T15:14:04.567Z,96984.19
2022-11-16T15:19:12.671Z,96982.41
2022-11-16T15:24:30.398Z,96982.41
2022-11-16T15:29:33.569Z,96975.81
2022-11-16T15:34:39.313Z,96981.34
2022-11-16T15:39:42.227Z,96978.13
2022-11-16T15:44:44.924Z,96975.53
2022-11-16T15:49:49.865Z,96978.13
2022-11-16T15:55:03.789Z,96980.91
2022-11-16T16:00:08.371Z,96968.97
2022-11-16T16:05:38.996Z,96973.31
2022-11-16T16:10:40.769Z,96973.31
2022-11-16T16:15:42.637Z,96964.78
2022-11-16T16:20:48.563Z,96967.34
2022-11-16T16:25:50.920Z,96964.94
2022-11-16T16:30:52.821Z,96962.53
2022-11-16T16:35:54.572Z,96965.13
2022-11-16T16:41:06.450Z,96961.75
2022-11-16T16:46:11.908Z,96966.72
2022-11-16T16:51:14.009Z,96961.56
2022-11-16T16:56:17.462Z,96961.56
2022-11-16T17:01:19.337Z,96959.97
2022-11-16T17:06:21.287Z,96952.38
2022-11-16T17:11:23.805Z,96966.63
2022-11-16T17:16:26.222Z,96969.38
2022-11-16T17:21:28.168Z,96968.13
2022-11-16T17:26:30.211Z,96968.66
2022-11-16T17:31:32.064Z,96969.47
2022-11-16T17:36:33.962Z,96963.31
2022-11-16T17:41:35.904Z,96969.28
2022-11-16T17:46:37.805Z,96960.13
2022-11-16T17:51:39.576Z,96965.47
2022-11-16T17:56:41.459Z,96964.84
2022-11-16T18:01:43.271Z,96964.84
2022-11-16T18:06:45.060Z,96972.56
2022-11-16T18:11:47.029Z,96967.94
2022-11-16T18:16:48.912Z,96974.09
2022-11-16T18:21:50.809Z,96968.47
2022-11-16T18:26:52.710Z,96970.59
2022-11-16T18:31:54.615Z,96974.16
2022-11-16T18:36:56.433Z,96965.78
2022-11-16T18:41:58.234Z,96967.56
2022-11-16T18:47:03.186Z,96962.75
2022-11-16T18:52:05.161Z,96968.88
2022-11-16T18:57:07.344Z,96963.09
2022-11-16T19:02:12.743Z,96956.50
2022-11-16T19:07:14.726Z,96952.50
2022-11-16T19:12:16.642Z,96954.44
2022-11-16T19:17:20.496Z,96949.47
2022-11-16T19:22:22.380Z,96957.03
2022-11-16T19:27:24.330Z,96953.66
2022-11-16T19:32:26.315Z,96955.41
2022-11-16T19:37:28.068Z,96954.78
2022-11-16T19:42:29.955Z,96951.25
2022-11-16T19:47:31.716Z,96949.97
2022-11-16T19:52:33.480Z,96958.06
2022-11-16T19:57:35.326Z,96956.81
2022-11-16T20:02:38.903Z,96961.41
2022-11-16T20:07:40.759Z,96957.72
2022-11-16T20:12:43.630Z,96949.88
2022-11-16T20:17:45.534Z,96960.72
2022-11-16T20:22:48.833Z,96953.50
2022-11-16T20:27:50.628Z,96955.16
2022-11-16T20:32:52.501Z,96941.78
2022-11-16T20:37:54.461Z,96942.13
2022-11-16T20:42:59.332Z,96954.41
2022-11-16T20:48:01.160Z,96955.06
2022-11-16T20:53:02.932Z,96954.63
2022-11-16T20:58:04.682Z,96947.69
2022-11-16T21:03:06.532Z,96954.63
2022-11-16T21:08:08.408Z,96947.06
2022-11-16T21:13:32.318Z,96953.97
2022-11-16T21:18:34.906Z,96948.19
2022-11-16T21:23:37.317Z,96956.91
2022-11-16T21:28:40.160Z,96957.22
2022-11-16T21:33:44.856Z,96967.72
2022-11-16T21:38:47.015Z,96969.47
2022-11-16T21:43:49.058Z,96962.72
2022-11-16T21:48:51.251Z,96967.72
2022-11-16T21:53:53.396Z,96956.59
2022-11-16T21:58:55.317Z,96950.81
2022-11-16T22:04:15.590Z,96962.09
2022-11-16T22:09:17.526Z,96957.91
2022-11-16T22:14:19.406Z,96964.03
2022-11-16T22:19:21.316Z,96963.56
2022-11-16T22:24:23.058Z,96967.28
2022-11-16T22:29:24.916Z,96965.69
2022-11-16T22:34:26.719Z,96957.16
2022-11-16T22:39:28.591Z,96960.06
2022-11-16T22:44:30.460Z,96960.22
2022-11-16T22:49:32.548Z,96952.50
2022-11-16T22:54:37.900Z,96951.53
2022-11-16T22:59:39.708Z,96951.53
2022-11-16T23:04:41.545Z,96954.09
2022-11-16T23:09:43.399Z,96953.75
2022-11-16T23:15:03.640Z,96940.25
2022-11-16T23:20:24.400Z,96936.06
2022-11-16T23:25:44.636Z,96934.63
2022-11-16T23:30:46.481Z,96929.81
2022-11-16T23:35:48.286Z,96932.56
2022-11-16T23:40:50.094Z,96929.34
2022-11-16T23:45:52.090Z,96933.88
2022-11-16T23:50:53.955Z,96935.16
2022-11-16T23:56:06.113Z,96930.00
